sensor_id;sensor_type;location;lat;lon;timestamp;temperature;humidity
44723;DHT22;30451;48.638;10.624;2022-11-11T00:00:27;21.30;58.60
44723;DHT22;30451;48.638;10.624;2022-11-11T00:02:56;21.30;58.50
44723;DHT22;30451;48.638;10.624;2022-11-11T00:05:23;21.30;58.50
44723;DHT22;30451;48.638;10.624;2022-11-11T00:07:51;21.30;58.60
44723;DHT22;30451;48.638;10.624;2022-11-11T00:10:18;21.30;58.50
44723;DHT22;30451;48.638;10.624;2022-11-11T00:12:43;21.30;58.50
44723;DHT22;30451;48.638;10.624;2022-11-11T00:15:09;21.30;58.60
44723;DHT22;30451;48.638;10.624;2022-11-11T00:17:35;21.30;58.50
44723;DHT22;30451;48.638;10.624;2022-11-11T00:20:19;21.20;58.50
44723;DHT22;30451;48.638;10.624;2022-11-11T00:23:04;21.20;58.50
44723;DHT22;30451;48.638;10.624;2022-11-11T00:25:52;21.20;58.50
44723;DHT22;30451;48.638;10.624;2022-11-11T00:28:18;21.20;58.50
44723;DHT22;30451;48.638;10.624;2022-11-11T00:30:44;21.20;58.50
44723;DHT22;30451;48.638;10.624;2022-11-11T00:33:09;21.20;58.60
44723;DHT22;30451;48.638;10.624;2022-11-11T00:35:35;21.20;58.50
44723;DHT22;30451;48.638;10.624;2022-11-11T00:38:19;21.20;58.50
44723;DHT22;30451;48.638;10.624;2022-11-11T00:41:03;21.20;58.50
44723;DHT22;30451;48.638;10.624;2022-11-11T00:43:29;21.20;58.50
44723;DHT22;30451;48.638;10.624;2022-11-11T00:45:55;21.20;58.60
44723;DHT22;30451;48.638;10.624;2022-11-11T00:48:41;21.20;58.60
44723;DHT22;30451;48.638;10.624;2022-11-11T00:51:25;21.20;58.60
44723;DHT22;30451;48.638;10.624;2022-11-11T00:53:51;21.20;58.50
44723;DHT22;30451;48.638;10.624;2022-11-11T00:56:16;21.20;58.60
44723;DHT22;30451;48.638;10.624;2022-11-11T00:58:42;21.20;58.50
44723;DHT22;30451;48.638;10.624;2022-11-11T01:01:08;21.10;58.50
44723;DHT22;30451;48.638;10.624;2022-11-11T01:03:33;21.20;58.60
44723;DHT22;30451;48.638;10.624;2022-11-11T01:06:00;21.20;58.60
44723;DHT22;30451;48.638;10.624;2022-11-11T01:08:25;21.10;58.50
44723;DHT22;30451;48.638;10.624;2022-11-11T01:10:51;21.10;58.50
44723;DHT22;30451;48.638;10.624;2022-11-11T01:13:22;21.10;58.50
44723;DHT22;30451;48.638;10.624;2022-11-11T01:15:50;21.10;58.50
44723;DHT22;30451;48.638;10.624;2022-11-11T01:18:18;21.10;58.50
44723;DHT22;30451;48.638;10.624;2022-11-11T01:20:45;21.10;59.00
44723;DHT22;30451;48.638;10.624;2022-11-11T01:23:12;21.10;59.00
44723;DHT22;30451;48.638;10.624;2022-11-11T01:25:40;21.10;58.50
44723;DHT22;30451;48.638;10.624;2022-11-11T01:28:06;21.10;58.50
44723;DHT22;30451;48.638;10.624;2022-11-11T01:30:33;21.10;58.50
44723;DHT22;30451;48.638;10.624;2022-11-11T01:33:00;21.10;59.00
44723;DHT22;30451;48.638;10.624;2022-11-11T01:35:28;21.10;58.50
44723;DHT22;30451;48.638;10.624;2022-11-11T01:37:53;21.10;58.50
44723;DHT22;30451;48.638;10.624;2022-11-11T01:40:20;21.10;58.50
44723;DHT22;30451;48.638;10.624;2022-11-11T01:42:48;21.10;58.60
44723;DHT22;30451;48.638;10.624;2022-11-11T01:45:46;21.10;58.50
44723;DHT22;30451;48.638;10.624;2022-11-11T01:48:42;21.00;58.50
44723;DHT22;30451;48.638;10.624;2022-11-11T01:55:03;21.00;58.50
44723;DHT22;30451;48.638;10.624;2022-11-11T01:57:01;21.00;58.50
44723;DHT22;30451;48.638;10.624;2022-11-11T01:59:29;21.00;58.50
44723;DHT22;30451;48.638;10.624;2022-11-11T02:01:56;21.00;58.50
44723;DHT22;30451;48.638;10.624;2022-11-11T02:04:22;21.00;58.50
44723;DHT22;30451;48.638;10.624;2022-11-11T02:07:07;21.00;58.50
44723;DHT22;30451;48.638;10.624;2022-11-11T02:09:36;21.00;58.50
44723;DHT22;30451;48.638;10.624;2022-11-11T02:12:07;21.00;58.50
44723;DHT22;30451;48.638;10.624;2022-11-11T02:14:53;21.00;58.50
44723;DHT22;30451;48.638;10.624;2022-11-11T02:17:20;21.00;58.50
44723;DHT22;30451;48.638;10.624;2022-11-11T02:20:03;21.00;58.50
44723;DHT22;30451;48.638;10.624;2022-11-11T02:22:46;21.00;58.50
44723;DHT22;30451;48.638;10.624;2022-11-11T02:25:17;21.00;58.50
44723;DHT22;30451;48.638;10.624;2022-11-11T02:27:46;21.00;58.50
44723;DHT22;30451;48.638;10.624;2022-11-11T02:30:14;21.00;58.50
44723;DHT22;30451;48.638;10.624;2022-11-11T02:32:42;21.00;58.50
44723;DHT22;30451;48.638;10.624;2022-11-11T02:35:14;21.00;58.50
44723;DHT22;30451;48.638;10.624;2022-11-11T02:37:43;21.00;58.50
44723;DHT22;30451;48.638;10.624;2022-11-11T02:40:12;20.90;58.40
44723;DHT22;30451;48.638;10.624;2022-11-11T02:42:38;21.00;58.50
44723;DHT22;30451;48.638;10.624;2022-11-11T02:45:04;20.90;58.40
44723;DHT22;30451;48.638;10.624;2022-11-11T02:47:30;20.90;58.40
44723;DHT22;30451;48.638;10.624;2022-11-11T02:49:55;20.90;58.40
44723;DHT22;30451;48.638;10.624;2022-11-11T02:52:21;20.90;58.40
44723;DHT22;30451;48.638;10.624;2022-11-11T02:54:47;20.90;58.40
44723;DHT22;30451;48.638;10.624;2022-11-11T02:57:13;20.90;58.40
44723;DHT22;30451;48.638;10.624;2022-11-11T02:59:40;20.90;58.40
44723;DHT22;30451;48.638;10.624;2022-11-11T03:02:06;20.90;58.40
44723;DHT22;30451;48.638;10.624;2022-11-11T03:04:33;20.90;58.40
44723;DHT22;30451;48.638;10.624;2022-11-11T03:06:59;20.90;58.40
44723;DHT22;30451;48.638;10.624;2022-11-11T03:09:25;20.90;58.40
44723;DHT22;30451;48.638;10.624;2022-11-11T03:11:50;20.90;58.40
44723;DHT22;30451;48.638;10.624;2022-11-11T03:14:16;20.90;58.40
44723;DHT22;30451;48.638;10.624;2022-11-11T03:16:42;20.90;58.40
44723;DHT22;30451;48.638;10.624;2022-11-11T03:19:26;20.90;58.40
44723;DHT22;30451;48.638;10.624;2022-11-11T03:21:51;20.90;58.40
44723;DHT22;30451;48.638;10.624;2022-11-11T03:24:17;20.90;58.40
44723;DHT22;30451;48.638;10.624;2022-11-11T03:26:43;20.90;58.40
44723;DHT22;30451;48.638;10.624;2022-11-11T03:29:08;20.80;58.30
44723;DHT22;30451;48.638;10.624;2022-11-11T03:31:34;20.80;58.30
44723;DHT22;30451;48.638;10.624;2022-11-11T03:33:59;20.80;58.30
44723;DHT22;30451;48.638;10.624;2022-11-11T03:36:43;20.80;58.30
44723;DHT22;30451;48.638;10.624;2022-11-11T03:39:27;20.80;58.30
44723;DHT22;30451;48.638;10.624;2022-11-11T03:41:53;20.80;58.30
44723;DHT22;30451;48.638;10.624;2022-11-11T03:44:19;20.80;58.30
44723;DHT22;30451;48.638;10.624;2022-11-11T03:46:44;20.80;58.30
44723;DHT22;30451;48.638;10.624;2022-11-11T03:49:10;20.80;58.30
44723;DHT22;30451;48.638;10.624;2022-11-11T03:51:35;20.80;58.30
44723;DHT22;30451;48.638;10.624;2022-11-11T03:54:01;20.80;58.30
44723;DHT22;30451;48.638;10.624;2022-11-11T03:56:27;20.80;58.30
44723;DHT22;30451;48.638;10.624;2022-11-11T03:58:52;20.80;58.30
44723;DHT22;30451;48.638;10.624;2022-11-11T04:01:18;20.80;58.30
44723;DHT22;30451;48.638;10.624;2022-11-11T04:04:02;20.80;58.30
44723;DHT22;30451;48.638;10.624;2022-11-11T04:06:46;20.80;58.30
44723;DHT22;30451;48.638;10.624;2022-11-11T04:09:30;20.80;58.80
44723;DHT22;30451;48.638;10.624;2022-11-11T04:12:14;20.80;58.30
44723;DHT22;30451;48.638;10.624;2022-11-11T04:14:40;20.80;58.30
44723;DHT22;30451;48.638;10.624;2022-11-11T04:17:24;20.80;58.30
44723;DHT22;30451;48.638;10.624;2022-11-11T04:19:50;20.80;58.30
44723;DHT22;30451;48.638;10.624;2022-11-11T04:22:40;20.80;58.30
44723;DHT22;30451;48.638;10.624;2022-11-11T04:25:06;20.80;58.30
44723;DHT22;30451;48.638;10.624;2022-11-11T04:27:50;20.80;58.30
44723;DHT22;30451;48.638;10.624;2022-11-11T04:30:36;20.70;58.20
44723;DHT22;30451;48.638;10.624;2022-11-11T04:33:01;20.70;58.20
44723;DHT22;30451;48.638;10.624;2022-11-11T04:35:27;20.70;58.20
44723;DHT22;30451;48.638;10.624;2022-11-11T04:37:52;20.70;58.20
44723;DHT22;30451;48.638;10.624;2022-11-11T04:40:38;20.80;58.30
44723;DHT22;30451;48.638;10.624;2022-11-11T04:43:22;20.70;58.30
44723;DHT22;30451;48.638;10.624;2022-11-11T04:45:47;20.70;58.30
44723;DHT22;30451;48.638;10.624;2022-11-11T04:48:13;20.70;58.30
44723;DHT22;30451;48.638;10.624;2022-11-11T04:50:42;20.70;58.30
44723;DHT22;30451;48.638;10.624;2022-11-11T04:53:13;20.70;58.30
44723;DHT22;30451;48.638;10.624;2022-11-11T04:55:41;20.70;58.40
44723;DHT22;30451;48.638;10.624;2022-11-11T04:58:31;20.70;58.40
44723;DHT22;30451;48.638;10.624;2022-11-11T05:00:57;20.60;58.40
44723;DHT22;30451;48.638;10.624;2022-11-11T05:03:23;20.60;58.40
44723;DHT22;30451;48.638;10.624;2022-11-11T05:08:41;20.70;58.50
44723;DHT22;30451;48.638;10.624;2022-11-11T05:11:31;20.70;58.60
44723;DHT22;30451;48.638;10.624;2022-11-11T05:13:59;20.60;58.60
44723;DHT22;30451;48.638;10.624;2022-11-11T05:16:47;20.60;58.60
44723;DHT22;30451;48.638;10.624;2022-11-11T05:19:32;20.60;58.60
44723;DHT22;30451;48.638;10.624;2022-11-11T05:24:48;20.60;58.70
44723;DHT22;30451;48.638;10.624;2022-11-11T05:27:32;20.60;58.70
44723;DHT22;30451;48.638;10.624;2022-11-11T05:29:58;20.60;58.70
44723;DHT22;30451;48.638;10.624;2022-11-11T05:32:24;20.60;58.70
44723;DHT22;30451;48.638;10.624;2022-11-11T05:34:50;20.60;58.70
44723;DHT22;30451;48.638;10.624;2022-11-11T05:37:17;20.60;58.80
44723;DHT22;30451;48.638;10.624;2022-11-11T05:39:43;20.60;58.80
44723;DHT22;30451;48.638;10.624;2022-11-11T05:42:09;20.60;58.80
44723;DHT22;30451;48.638;10.624;2022-11-11T05:44:35;20.60;58.80
44723;DHT22;30451;48.638;10.624;2022-11-11T05:47:01;20.60;58.80
44723;DHT22;30451;48.638;10.624;2022-11-11T05:49:26;20.60;58.80
44723;DHT22;30451;48.638;10.624;2022-11-11T05:51:53;20.60;58.80
44723;DHT22;30451;48.638;10.624;2022-11-11T05:54:20;20.60;58.80
44723;DHT22;30451;48.638;10.624;2022-11-11T05:56:46;20.60;58.80
44723;DHT22;30451;48.638;10.624;2022-11-11T05:59:11;20.60;58.80
44723;DHT22;30451;48.638;10.624;2022-11-11T06:01:37;20.60;58.80
44723;DHT22;30451;48.638;10.624;2022-11-11T06:04:04;20.60;58.80
44723;DHT22;30451;48.638;10.624;2022-11-11T06:06:30;20.60;58.80
44723;DHT22;30451;48.638;10.624;2022-11-11T06:08:56;20.60;58.80
44723;DHT22;30451;48.638;10.624;2022-11-11T06:11:23;20.60;58.90
44723;DHT22;30451;48.638;10.624;2022-11-11T06:13:49;20.50;58.80
44723;DHT22;30451;48.638;10.624;2022-11-11T06:16:15;20.60;59.70
44723;DHT22;30451;48.638;10.624;2022-11-11T06:18:41;20.70;59.50
44723;DHT22;30451;48.638;10.624;2022-11-11T06:21:07;20.80;59.30
44723;DHT22;30451;48.638;10.624;2022-11-11T06:23:32;20.90;59.10
44723;DHT22;30451;48.638;10.624;2022-11-11T06:25:58;21.00;59.10
44723;DHT22;30451;48.638;10.624;2022-11-11T06:28:53;21.10;58.90
44723;DHT22;30451;48.638;10.624;2022-11-11T06:31:24;21.30;58.50
44723;DHT22;30451;48.638;10.624;2022-11-11T06:33:50;21.40;58.10
44723;DHT22;30451;48.638;10.624;2022-11-11T06:36:17;21.60;57.80
44723;DHT22;30451;48.638;10.624;2022-11-11T06:38:43;21.70;57.40
44723;DHT22;30451;48.638;10.624;2022-11-11T06:41:10;21.80;57.20
44723;DHT22;30451;48.638;10.624;2022-11-11T06:43:40;21.90;56.80
44723;DHT22;30451;48.638;10.624;2022-11-11T06:46:06;22.00;56.90
44723;DHT22;30451;48.638;10.624;2022-11-11T06:48:37;22.10;56.60
44723;DHT22;30451;48.638;10.624;2022-11-11T06:51:06;22.20;56.40
44723;DHT22;30451;48.638;10.624;2022-11-11T06:53:32;22.30;56.10
44723;DHT22;30451;48.638;10.624;2022-11-11T06:55:58;22.40;55.90
44723;DHT22;30451;48.638;10.624;2022-11-11T06:58:24;22.50;55.70
44723;DHT22;30451;48.638;10.624;2022-11-11T07:00:49;22.60;55.70
44723;DHT22;30451;48.638;10.624;2022-11-11T07:03:17;22.70;55.60
44723;DHT22;30451;48.638;10.624;2022-11-11T07:05:44;22.70;55.30
44723;DHT22;30451;48.638;10.624;2022-11-11T07:08:14;22.80;55.10
44723;DHT22;30451;48.638;10.624;2022-11-11T07:10:44;22.90;54.90
44723;DHT22;30451;48.638;10.624;2022-11-11T07:13:10;23.00;55.10
44723;DHT22;30451;48.638;10.624;2022-11-11T07:15:36;23.10;54.40
44723;DHT22;30451;48.638;10.624;2022-11-11T07:18:02;23.20;54.40
44723;DHT22;30451;48.638;10.624;2022-11-11T07:20:28;23.30;54.40
44723;DHT22;30451;48.638;10.624;2022-11-11T07:22:54;23.30;54.20
44723;DHT22;30451;48.638;10.624;2022-11-11T07:25:20;23.30;54.00
44723;DHT22;30451;48.638;10.624;2022-11-11T07:27:46;23.30;54.00
44723;DHT22;30451;48.638;10.624;2022-11-11T07:30:12;23.30;54.00
44723;DHT22;30451;48.638;10.624;2022-11-11T07:32:47;23.20;54.00
44723;DHT22;30451;48.638;10.624;2022-11-11T07:35:13;23.20;54.00
44723;DHT22;30451;48.638;10.624;2022-11-11T07:37:39;23.20;54.00
44723;DHT22;30451;48.638;10.624;2022-11-11T07:40:06;23.20;54.00
44723;DHT22;30451;48.638;10.624;2022-11-11T07:42:35;23.20;54.30
44723;DHT22;30451;48.638;10.624;2022-11-11T07:45:01;23.30;54.70
44723;DHT22;30451;48.638;10.624;2022-11-11T07:47:27;23.40;54.50
44723;DHT22;30451;48.638;10.624;2022-11-11T07:52:18;23.30;54.80
44723;DHT22;30451;48.638;10.624;2022-11-11T07:54:44;23.30;55.00
44723;DHT22;30451;48.638;10.624;2022-11-11T07:57:09;23.30;55.10
44723;DHT22;30451;48.638;10.624;2022-11-11T07:59:35;23.30;55.20
44723;DHT22;30451;48.638;10.624;2022-11-11T08:02:00;23.40;55.30
44723;DHT22;30451;48.638;10.624;2022-11-11T08:04:26;23.40;56.20
44723;DHT22;30451;48.638;10.624;2022-11-11T08:06:51;23.50;55.70
44723;DHT22;30451;48.638;10.624;2022-11-11T08:09:17;23.60;55.50
44723;DHT22;30451;48.638;10.624;2022-11-11T08:11:42;23.60;55.50
44723;DHT22;30451;48.638;10.624;2022-11-11T08:14:27;23.60;55.50
44723;DHT22;30451;48.638;10.624;2022-11-11T08:16:52;23.60;55.80
44723;DHT22;30451;48.638;10.624;2022-11-11T08:19:18;23.60;56.20
44723;DHT22;30451;48.638;10.624;2022-11-11T08:21:44;23.70;57.00
44723;DHT22;30451;48.638;10.624;2022-11-11T08:24:10;23.80;56.70
44723;DHT22;30451;48.638;10.624;2022-11-11T08:26:36;23.90;56.90
44723;DHT22;30451;48.638;10.624;2022-11-11T08:29:02;23.90;56.80
44723;DHT22;30451;48.638;10.624;2022-11-11T08:31:27;23.90;56.80
44723;DHT22;30451;48.638;10.624;2022-11-11T08:33:53;23.90;57.00
44723;DHT22;30451;48.638;10.624;2022-11-11T08:36:19;23.90;57.20
44723;DHT22;30451;48.638;10.624;2022-11-11T08:38:44;23.90;57.40
44723;DHT22;30451;48.638;10.624;2022-11-11T08:41:10;23.90;57.30
44723;DHT22;30451;48.638;10.624;2022-11-11T08:43:36;23.90;57.20
44723;DHT22;30451;48.638;10.624;2022-11-11T08:46:03;23.90;57.80
44723;DHT22;30451;48.638;10.624;2022-11-11T08:48:32;24.00;58.10
44723;DHT22;30451;48.638;10.624;2022-11-11T08:50:58;24.00;57.90
44723;DHT22;30451;48.638;10.624;2022-11-11T08:53:24;24.00;57.60
44723;DHT22;30451;48.638;10.624;2022-11-11T08:55:50;24.00;58.40
44723;DHT22;30451;48.638;10.624;2022-11-11T08:58:16;24.10;58.40
44723;DHT22;30451;48.638;10.624;2022-11-11T09:00:42;24.10;57.70
44723;DHT22;30451;48.638;10.624;2022-11-11T09:03:09;24.10;58.30
44723;DHT22;30451;48.638;10.624;2022-11-11T09:05:39;24.10;58.10
44723;DHT22;30451;48.638;10.624;2022-11-11T09:08:06;24.10;57.70
44723;DHT22;30451;48.638;10.624;2022-11-11T09:10:33;24.10;57.80
44723;DHT22;30451;48.638;10.624;2022-11-11T09:12:59;24.10;57.60
44723;DHT22;30451;48.638;10.624;2022-11-11T09:15:25;24.00;57.30
44723;DHT22;30451;48.638;10.624;2022-11-11T09:17:51;24.00;57.80
44723;DHT22;30451;48.638;10.624;2022-11-11T09:20:18;24.00;57.20
44723;DHT22;30451;48.638;10.624;2022-11-11T09:22:47;24.00;57.20
44723;DHT22;30451;48.638;10.624;2022-11-11T09:25:14;24.00;57.10
44723;DHT22;30451;48.638;10.624;2022-11-11T09:27:40;24.00;57.00
44723;DHT22;30451;48.638;10.624;2022-11-11T09:30:07;24.00;57.00
44723;DHT22;30451;48.638;10.624;2022-11-11T09:32:33;24.00;57.00
44723;DHT22;30451;48.638;10.624;2022-11-11T09:34:59;24.00;57.00
44723;DHT22;30451;48.638;10.624;2022-11-11T09:37:25;24.00;57.00
44723;DHT22;30451;48.638;10.624;2022-11-11T09:39:51;24.00;57.60
44723;DHT22;30451;48.638;10.624;2022-11-11T09:42:41;24.00;57.10
44723;DHT22;30451;48.638;10.624;2022-11-11T09:45:19;24.00;57.00
44723;DHT22;30451;48.638;10.624;2022-11-11T09:50:27;24.00;57.00
44723;DHT22;30451;48.638;10.624;2022-11-11T09:53:16;24.10;57.10
44723;DHT22;30451;48.638;10.624;2022-11-11T09:55:57;24.10;57.10
44723;DHT22;30451;48.638;10.624;2022-11-11T09:58:27;24.10;57.10
44723;DHT22;30451;48.638;10.624;2022-11-11T10:01:03;24.10;57.10
44723;DHT22;30451;48.638;10.624;2022-11-11T10:03:35;24.10;57.10
44723;DHT22;30451;48.638;10.624;2022-11-11T10:06:08;24.10;57.10
44723;DHT22;30451;48.638;10.624;2022-11-11T10:08:58;24.10;57.10
44723;DHT22;30451;48.638;10.624;2022-11-11T10:14:40;24.20;57.80
44723;DHT22;30451;48.638;10.624;2022-11-11T10:20:00;24.20;57.10
44723;DHT22;30451;48.638;10.624;2022-11-11T10:22:32;24.20;57.30
44723;DHT22;30451;48.638;10.624;2022-11-11T10:27:42;24.20;57.00
44723;DHT22;30451;48.638;10.624;2022-11-11T10:30:24;24.20;57.20
44723;DHT22;30451;48.638;10.624;2022-11-11T10:32:58;24.20;57.20
44723;DHT22;30451;48.638;10.624;2022-11-11T10:35:27;24.20;57.20
44723;DHT22;30451;48.638;10.624;2022-11-11T10:40:59;24.20;57.20
44723;DHT22;30451;48.638;10.624;2022-11-11T10:43:28;24.30;57.20
44723;DHT22;30451;48.638;10.624;2022-11-11T10:51:01;24.20;57.20
44723;DHT22;30451;48.638;10.624;2022-11-11T10:53:36;24.30;57.20
44723;DHT22;30451;48.638;10.624;2022-11-11T10:58:46;24.30;57.40
44723;DHT22;30451;48.638;10.624;2022-11-11T11:01:16;24.30;55.10
44723;DHT22;30451;48.638;10.624;2022-11-11T11:03:49;24.30;53.70
44723;DHT22;30451;48.638;10.624;2022-11-11T11:06:23;24.30;53.70
44723;DHT22;30451;48.638;10.624;2022-11-11T11:12:05;24.20;54.10
44723;DHT22;30451;48.638;10.624;2022-11-11T11:14:37;24.20;54.20
44723;DHT22;30451;48.638;10.624;2022-11-11T11:17:12;24.20;54.40
44723;DHT22;30451;48.638;10.624;2022-11-11T11:19:38;24.20;54.30
44723;DHT22;30451;48.638;10.624;2022-11-11T11:22:04;24.10;54.30
44723;DHT22;30451;48.638;10.624;2022-11-11T11:24:35;24.10;54.30
44723;DHT22;30451;48.638;10.624;2022-11-11T11:27:08;24.10;54.40
44723;DHT22;30451;48.638;10.624;2022-11-11T11:29:38;24.10;54.40
44723;DHT22;30451;48.638;10.624;2022-11-11T11:37:08;24.10;54.30
44723;DHT22;30451;48.638;10.624;2022-11-11T11:39:36;24.10;54.40
44723;DHT22;30451;48.638;10.624;2022-11-11T11:42:03;24.10;54.40
44723;DHT22;30451;48.638;10.624;2022-11-11T11:44:36;24.10;54.40
44723;DHT22;30451;48.638;10.624;2022-11-11T11:47:28;24.10;54.40
44723;DHT22;30451;48.638;10.624;2022-11-11T11:52:42;24.10;54.30
44723;DHT22;30451;48.638;10.624;2022-11-11T11:55:18;24.10;54.30
44723;DHT22;30451;48.638;10.624;2022-11-11T11:57:59;24.10;54.30
44723;DHT22;30451;48.638;10.624;2022-11-11T12:00:35;24.10;54.20
44723;DHT22;30451;48.638;10.624;2022-11-11T12:05:53;24.10;54.30
44723;DHT22;30451;48.638;10.624;2022-11-11T12:08:41;24.10;54.30
44723;DHT22;30451;48.638;10.624;2022-11-11T12:11:24;24.10;54.30
44723;DHT22;30451;48.638;10.624;2022-11-11T12:16:53;24.10;54.30
44723;DHT22;30451;48.638;10.624;2022-11-11T12:29:47;24.10;52.70
44723;DHT22;30451;48.638;10.624;2022-11-11T12:32:44;24.00;52.80
44723;DHT22;30451;48.638;10.624;2022-11-11T12:43:33;23.90;53.10
44723;DHT22;30451;48.638;10.624;2022-11-11T12:51:59;23.70;53.30
44723;DHT22;30451;48.638;10.624;2022-11-11T12:54:57;23.70;53.40
44723;DHT22;30451;48.638;10.624;2022-11-11T13:02:58;23.60;53.50
44723;DHT22;30451;48.638;10.624;2022-11-11T13:05:33;23.50;53.50
44723;DHT22;30451;48.638;10.624;2022-11-11T13:15:49;23.40;53.80
44723;DHT22;30451;48.638;10.624;2022-11-11T13:21:03;23.40;54.00
44723;DHT22;30451;48.638;10.624;2022-11-11T13:23:30;23.30;54.10
44723;DHT22;30451;48.638;10.624;2022-11-11T13:26:00;23.30;54.10
44723;DHT22;30451;48.638;10.624;2022-11-11T13:28:31;23.30;54.20
44723;DHT22;30451;48.638;10.624;2022-11-11T13:31:25;23.30;54.80
44723;DHT22;30451;48.638;10.624;2022-11-11T13:33:57;23.30;54.80
44723;DHT22;30451;48.638;10.624;2022-11-11T13:36:27;23.30;54.30
44723;DHT22;30451;48.638;10.624;2022-11-11T13:39:03;23.30;54.20
44723;DHT22;30451;48.638;10.624;2022-11-11T13:41:32;23.30;54.20
44723;DHT22;30451;48.638;10.624;2022-11-11T13:43:58;23.30;54.20
44723;DHT22;30451;48.638;10.624;2022-11-11T13:49:07;23.40;54.20
44723;DHT22;30451;48.638;10.624;2022-11-11T13:51:38;23.40;54.20
44723;DHT22;30451;48.638;10.624;2022-11-11T13:54:21;23.40;54.20
44723;DHT22;30451;48.638;10.624;2022-11-11T13:56:50;23.30;54.10
44723;DHT22;30451;48.638;10.624;2022-11-11T13:59:23;23.30;54.10
44723;DHT22;30451;48.638;10.624;2022-11-11T14:07:58;23.30;54.20
44723;DHT22;30451;48.638;10.624;2022-11-11T14:12:51;23.30;54.30
44723;DHT22;30451;48.638;10.624;2022-11-11T14:15:44;23.30;54.20
44723;DHT22;30451;48.638;10.624;2022-11-11T14:23:41;23.30;54.20
44723;DHT22;30451;48.638;10.624;2022-11-11T14:28:53;23.30;54.30
44723;DHT22;30451;48.638;10.624;2022-11-11T14:33:51;23.30;54.60
44723;DHT22;30451;48.638;10.624;2022-11-11T14:39:50;23.30;54.40
44723;DHT22;30451;48.638;10.624;2022-11-11T14:47:48;23.30;54.20
44723;DHT22;30451;48.638;10.624;2022-11-11T14:53:18;23.40;54.30
44723;DHT22;30451;48.638;10.624;2022-11-11T14:55:51;23.40;54.20
44723;DHT22;30451;48.638;10.624;2022-11-11T14:58:19;23.40;54.20
44723;DHT22;30451;48.638;10.624;2022-11-11T15:00:52;23.40;54.30
44723;DHT22;30451;48.638;10.624;2022-11-11T15:03:34;23.40;54.20
44723;DHT22;30451;48.638;10.624;2022-11-11T15:11:55;23.40;54.20
44723;DHT22;30451;48.638;10.624;2022-11-11T15:27:41;23.20;54.20
44723;DHT22;30451;48.638;10.624;2022-11-11T15:30:14;23.20;54.20
44723;DHT22;30451;48.638;10.624;2022-11-11T15:33:16;23.20;54.20
44723;DHT22;30451;48.638;10.624;2022-11-11T15:36:08;23.20;54.30
44723;DHT22;30451;48.638;10.624;2022-11-11T15:38:35;23.20;54.30
44723;DHT22;30451;48.638;10.624;2022-11-11T15:41:01;23.20;54.20
44723;DHT22;30451;48.638;10.624;2022-11-11T15:43:29;23.20;54.70
44723;DHT22;30451;48.638;10.624;2022-11-11T15:46:02;23.10;54.30
44723;DHT22;30451;48.638;10.624;2022-11-11T15:48:33;23.10;54.30
44723;DHT22;30451;48.638;10.624;2022-11-11T15:53:47;23.10;54.30
44723;DHT22;30451;48.638;10.624;2022-11-11T15:56:31;23.20;54.40
44723;DHT22;30451;48.638;10.624;2022-11-11T15:58:57;23.20;54.30
44723;DHT22;30451;48.638;10.624;2022-11-11T16:01:27;23.20;54.30
44723;DHT22;30451;48.638;10.624;2022-11-11T16:03:53;23.20;54.30
44723;DHT22;30451;48.638;10.624;2022-11-11T16:06:20;23.20;54.20
44723;DHT22;30451;48.638;10.624;2022-11-11T16:08:51;23.20;54.30
44723;DHT22;30451;48.638;10.624;2022-11-11T16:11:18;23.20;54.30
44723;DHT22;30451;48.638;10.624;2022-11-11T16:13:55;23.20;54.30
44723;DHT22;30451;48.638;10.624;2022-11-11T16:16:29;23.20;54.30
44723;DHT22;30451;48.638;10.624;2022-11-11T16:19:03;23.20;54.20
44723;DHT22;30451;48.638;10.624;2022-11-11T16:21:43;23.20;54.20
44723;DHT22;30451;48.638;10.624;2022-11-11T16:24:29;23.20;54.20
44723;DHT22;30451;48.638;10.624;2022-11-11T16:26:56;23.20;54.30
44723;DHT22;30451;48.638;10.624;2022-11-11T16:29:26;23.20;54.20
44723;DHT22;30451;48.638;10.624;2022-11-11T16:31:54;23.20;54.30
44723;DHT22;30451;48.638;10.624;2022-11-11T16:34:32;23.20;54.30
44723;DHT22;30451;48.638;10.624;2022-11-11T16:39:28;23.20;54.20
44723;DHT22;30451;48.638;10.624;2022-11-11T16:41:55;23.20;54.20
44723;DHT22;30451;48.638;10.624;2022-11-11T16:44:32;23.20;54.30
44723;DHT22;30451;48.638;10.624;2022-11-11T16:47:01;23.20;54.30
44723;DHT22;30451;48.638;10.624;2022-11-11T16:49:32;23.20;54.20
44723;DHT22;30451;48.638;10.624;2022-11-11T16:52:11;23.20;54.30
44723;DHT22;30451;48.638;10.624;2022-11-11T16:54:39;23.20;54.30
44723;DHT22;30451;48.638;10.624;2022-11-11T16:57:18;23.20;54.20
44723;DHT22;30451;48.638;10.624;2022-11-11T16:59:48;23.20;54.70
44723;DHT22;30451;48.638;10.624;2022-11-11T17:02:20;23.20;54.20
44723;DHT22;30451;48.638;10.624;2022-11-11T17:07:36;23.20;54.20
44723;DHT22;30451;48.638;10.624;2022-11-11T17:12:37;23.20;54.10
44723;DHT22;30451;48.638;10.624;2022-11-11T17:15:08;23.30;54.20
44723;DHT22;30451;48.638;10.624;2022-11-11T17:17:34;23.20;54.60
44723;DHT22;30451;48.638;10.624;2022-11-11T17:20:05;23.30;54.20
44723;DHT22;30451;48.638;10.624;2022-11-11T17:22:31;23.30;54.30
44723;DHT22;30451;48.638;10.624;2022-11-11T17:24:57;23.30;54.30
44723;DHT22;30451;48.638;10.624;2022-11-11T17:27:23;23.30;54.30
44723;DHT22;30451;48.638;10.624;2022-11-11T17:29:48;23.30;54.30
44723;DHT22;30451;48.638;10.624;2022-11-11T17:32:14;23.30;54.30
44723;DHT22;30451;48.638;10.624;2022-11-11T17:34:39;23.30;54.40
44723;DHT22;30451;48.638;10.624;2022-11-11T17:37:05;23.30;54.40
44723;DHT22;30451;48.638;10.624;2022-11-11T17:39:30;23.30;54.30
44723;DHT22;30451;48.638;10.624;2022-11-11T17:41:56;23.30;54.30
44723;DHT22;30451;48.638;10.624;2022-11-11T17:44:22;23.30;54.20
44723;DHT22;30451;48.638;10.624;2022-11-11T17:46:47;23.30;54.20
44723;DHT22;30451;48.638;10.624;2022-11-11T17:49:13;23.30;54.30
44723;DHT22;30451;48.638;10.624;2022-11-11T17:51:40;23.30;54.30
44723;DHT22;30451;48.638;10.624;2022-11-11T17:54:07;23.30;54.30
44723;DHT22;30451;48.638;10.624;2022-11-11T17:56:34;23.30;54.20
44723;DHT22;30451;48.638;10.624;2022-11-11T17:59:00;23.30;54.20
44723;DHT22;30451;48.638;10.624;2022-11-11T18:01:26;23.40;54.30
44723;DHT22;30451;48.638;10.624;2022-11-11T18:03:55;23.30;54.80
44723;DHT22;30451;48.638;10.624;2022-11-11T18:06:21;23.40;54.80
44723;DHT22;30451;48.638;10.624;2022-11-11T18:08:47;23.40;54.30